Terminal Aerodrome Forecast
Issued by NWS

Home | Current Version | Previous Version | Text Only | Print | Product List | Glossary On
Versions: 1 2 3 4 5 6 7 8 9 10 11 12 13 14
000
FTUS44 KOUN 232337
TAFLAW
TAF
KLAW 232337Z 2400/2424 15019G27KT P6SM SCT060 BKN120
      TEMPO 2400/2404 VRB45KT 2SM TSRA OVC040CB
     FM240800 16017G22KT P6SM BKN025
     FM241100 24015G24KT P6SM BKN200
     FM241400 34023G32KT P6SM SCT250
     FM242100 34015G24KT P6SM SCT250=

USA.gov is the U.S. government's official web portal to all federal, state and local government web resources and services.